sensor_id;sensor_type;location;lat;lon;timestamp;temperature;humidity
9329;DHT22;4703;48.748;19.142;2022-12-18T00:01:27;-2.00;99.90
9329;DHT22;4703;48.748;19.142;2022-12-18T00:03:58;-2.00;99.90
9329;DHT22;4703;48.748;19.142;2022-12-18T00:06:27;-2.00;99.90
9329;DHT22;4703;48.748;19.142;2022-12-18T00:08:57;-2.00;99.90
9329;DHT22;4703;48.748;19.142;2022-12-18T00:11:27;-2.20;99.90
9329;DHT22;4703;48.748;19.142;2022-12-18T00:13:56;-2.10;99.90
9329;DHT22;4703;48.748;19.142;2022-12-18T00:16:26;-2.20;99.90
9329;DHT22;4703;48.748;19.142;2022-12-18T00:18:57;-2.20;99.90
9329;DHT22;4703;48.748;19.142;2022-12-18T00:21:24;-2.10;99.90
9329;DHT22;4703;48.748;19.142;2022-12-18T00:23:52;-2.20;99.90
9329;DHT22;4703;48.748;19.142;2022-12-18T00:26:24;-2.20;99.90
9329;DHT22;4703;48.748;19.142;2022-12-18T00:28:53;-2.20;99.90
9329;DHT22;4703;48.748;19.142;2022-12-18T00:31:22;-2.30;99.90
9329;DHT22;4703;48.748;19.142;2022-12-18T00:33:53;-2.10;99.90
9329;DHT22;4703;48.748;19.142;2022-12-18T00:36:24;-2.40;99.90
9329;DHT22;4703;48.748;19.142;2022-12-18T00:38:54;-2.20;99.90
9329;DHT22;4703;48.748;19.142;2022-12-18T00:41:22;-2.30;99.90
9329;DHT22;4703;48.748;19.142;2022-12-18T00:44:10;-2.30;99.90
9329;DHT22;4703;48.748;19.142;2022-12-18T00:46:39;-2.30;99.90
9329;DHT22;4703;48.748;19.142;2022-12-18T00:49:07;-2.20;99.90
9329;DHT22;4703;48.748;19.142;2022-12-18T00:51:34;-2.30;99.90
9329;DHT22;4703;48.748;19.142;2022-12-18T00:56:29;-2.40;99.90
9329;DHT22;4703;48.748;19.142;2022-12-18T00:58:56;-2.40;99.90
9329;DHT22;4703;48.748;19.142;2022-12-18T01:01:23;-2.40;99.90
9329;DHT22;4703;48.748;19.142;2022-12-18T01:03:50;-2.50;99.90
9329;DHT22;4703;48.748;19.142;2022-12-18T01:06:24;-2.50;99.90
9329;DHT22;4703;48.748;19.142;2022-12-18T01:11:19;-2.50;99.90
9329;DHT22;4703;48.748;19.142;2022-12-18T01:13:47;-2.60;99.90
9329;DHT22;4703;48.748;19.142;2022-12-18T01:16:16;-2.60;99.90
9329;DHT22;4703;48.748;19.142;2022-12-18T01:18:44;-2.60;99.90
9329;DHT22;4703;48.748;19.142;2022-12-18T01:21:15;-2.50;99.90
9329;DHT22;4703;48.748;19.142;2022-12-18T01:23:42;-2.70;99.90
9329;DHT22;4703;48.748;19.142;2022-12-18T01:26:12;-2.80;99.90
9329;DHT22;4703;48.748;19.142;2022-12-18T01:28:42;-2.90;99.90
9329;DHT22;4703;48.748;19.142;2022-12-18T01:31:16;-2.80;99.90
9329;DHT22;4703;48.748;19.142;2022-12-18T01:33:48;-2.90;99.90
9329;DHT22;4703;48.748;19.142;2022-12-18T01:36:22;-3.00;99.90
9329;DHT22;4703;48.748;19.142;2022-12-18T01:38:54;-3.10;99.90
9329;DHT22;4703;48.748;19.142;2022-12-18T01:41:23;-3.00;99.90
9329;DHT22;4703;48.748;19.142;2022-12-18T01:43:55;-2.50;99.90
9329;DHT22;4703;48.748;19.142;2022-12-18T01:49:00;-3.10;99.90
9329;DHT22;4703;48.748;19.142;2022-12-18T01:51:29;-3.10;99.90
9329;DHT22;4703;48.748;19.142;2022-12-18T01:53:57;-3.00;99.90
9329;DHT22;4703;48.748;19.142;2022-12-18T01:56:26;-3.00;99.90
9329;DHT22;4703;48.748;19.142;2022-12-18T01:59:03;-3.00;99.90
9329;DHT22;4703;48.748;19.142;2022-12-18T02:01:32;-3.10;99.90
9329;DHT22;4703;48.748;19.142;2022-12-18T02:04:23;-3.10;99.90
9329;DHT22;4703;48.748;19.142;2022-12-18T02:07:11;-3.20;99.90
9329;DHT22;4703;48.748;19.142;2022-12-18T02:09:48;-3.20;99.90
9329;DHT22;4703;48.748;19.142;2022-12-18T02:12:23;-3.30;99.90
9329;DHT22;4703;48.748;19.142;2022-12-18T02:18:50;-3.30;99.90
9329;DHT22;4703;48.748;19.142;2022-12-18T02:24:17;-3.40;99.90
9329;DHT22;4703;48.748;19.142;2022-12-18T02:26:59;-3.20;99.90
9329;DHT22;4703;48.748;19.142;2022-12-18T02:29:44;-3.30;99.90
9329;DHT22;4703;48.748;19.142;2022-12-18T02:32:26;-3.30;99.90
9329;DHT22;4703;48.748;19.142;2022-12-18T02:34:56;-3.30;99.90
9329;DHT22;4703;48.748;19.142;2022-12-18T02:37:25;-3.40;99.90
9329;DHT22;4703;48.748;19.142;2022-12-18T02:39:55;-3.40;99.90
9329;DHT22;4703;48.748;19.142;2022-12-18T02:42:24;-3.50;99.90
9329;DHT22;4703;48.748;19.142;2022-12-18T02:44:51;-3.30;99.90
9329;DHT22;4703;48.748;19.142;2022-12-18T02:47:22;-3.40;99.90
9329;DHT22;4703;48.748;19.142;2022-12-18T02:58:26;-3.30;99.90
9329;DHT22;4703;48.748;19.142;2022-12-18T03:04:01;-3.50;99.90
9329;DHT22;4703;48.748;19.142;2022-12-18T03:06:43;-3.50;99.90
9329;DHT22;4703;48.748;19.142;2022-12-18T03:09:19;-3.50;99.90
9329;DHT22;4703;48.748;19.142;2022-12-18T03:11:59;-3.50;99.90
9329;DHT22;4703;48.748;19.142;2022-12-18T03:14:56;-3.60;99.90
9329;DHT22;4703;48.748;19.142;2022-12-18T03:17:27;-3.50;99.90
9329;DHT22;4703;48.748;19.142;2022-12-18T03:19:57;-3.70;99.90
9329;DHT22;4703;48.748;19.142;2022-12-18T03:22:27;-3.80;99.90
9329;DHT22;4703;48.748;19.142;2022-12-18T03:24:57;-3.70;99.90
9329;DHT22;4703;48.748;19.142;2022-12-18T03:27:28;-3.90;99.90
9329;DHT22;4703;48.748;19.142;2022-12-18T03:30:09;-3.90;99.90
9329;DHT22;4703;48.748;19.142;2022-12-18T03:32:49;-3.90;99.90
9329;DHT22;4703;48.748;19.142;2022-12-18T03:35:32;-3.90;99.90
9329;DHT22;4703;48.748;19.142;2022-12-18T03:38:02;-3.90;99.90
9329;DHT22;4703;48.748;19.142;2022-12-18T03:47:10;-4.20;99.90
9329;DHT22;4703;48.748;19.142;2022-12-18T03:49:32;-4.00;99.90
9329;DHT22;4703;48.748;19.142;2022-12-18T03:52:18;-4.20;99.90
9329;DHT22;4703;48.748;19.142;2022-12-18T03:54:50;-4.10;99.90
9329;DHT22;4703;48.748;19.142;2022-12-18T03:57:24;-4.30;99.90
9329;DHT22;4703;48.748;19.142;2022-12-18T04:00:09;-4.20;99.90
9329;DHT22;4703;48.748;19.142;2022-12-18T04:02:41;-4.20;99.90
9329;DHT22;4703;48.748;19.142;2022-12-18T04:07:38;-4.20;99.90
9329;DHT22;4703;48.748;19.142;2022-12-18T04:10:07;-4.20;99.90
9329;DHT22;4703;48.748;19.142;2022-12-18T04:12:37;-4.20;99.90
9329;DHT22;4703;48.748;19.142;2022-12-18T04:15:05;-4.30;99.90
9329;DHT22;4703;48.748;19.142;2022-12-18T04:22:27;-4.40;99.90
9329;DHT22;4703;48.748;19.142;2022-12-18T04:27:21;-4.60;99.90
9329;DHT22;4703;48.748;19.142;2022-12-18T04:44:32;-4.60;99.90
9329;DHT22;4703;48.748;19.142;2022-12-18T05:14:02;-5.10;99.90
9329;DHT22;4703;48.748;19.142;2022-12-18T05:16:29;-5.00;99.90
9329;DHT22;4703;48.748;19.142;2022-12-18T05:21:23;-4.90;99.90
9329;DHT22;4703;48.748;19.142;2022-12-18T05:28:46;-5.10;99.90
9329;DHT22;4703;48.748;19.142;2022-12-18T05:31:14;-5.20;99.90
9329;DHT22;4703;48.748;19.142;2022-12-18T05:33:41;-5.10;99.90
9329;DHT22;4703;48.748;19.142;2022-12-18T05:36:10;-5.20;99.90
9329;DHT22;4703;48.748;19.142;2022-12-18T05:38:38;-5.20;99.90
9329;DHT22;4703;48.748;19.142;2022-12-18T05:43:35;-5.20;99.90
9329;DHT22;4703;48.748;19.142;2022-12-18T05:46:10;-5.20;99.90
9329;DHT22;4703;48.748;19.142;2022-12-18T05:51:09;-5.20;99.90
9329;DHT22;4703;48.748;19.142;2022-12-18T05:53:38;-5.10;99.90
9329;DHT22;4703;48.748;19.142;2022-12-18T05:56:15;-5.20;99.90
9329;DHT22;4703;48.748;19.142;2022-12-18T05:58:43;-5.20;99.90
9329;DHT22;4703;48.748;19.142;2022-12-18T06:01:17;-5.20;99.90
9329;DHT22;4703;48.748;19.142;2022-12-18T06:06:25;-5.20;99.90
9329;DHT22;4703;48.748;19.142;2022-12-18T06:08:54;-5.20;99.90
9329;DHT22;4703;48.748;19.142;2022-12-18T06:11:24;-5.10;99.90
9329;DHT22;4703;48.748;19.142;2022-12-18T06:13:53;-5.50;99.90
9329;DHT22;4703;48.748;19.142;2022-12-18T06:16:25;-5.40;99.90
9329;DHT22;4703;48.748;19.142;2022-12-18T06:18:55;-5.40;99.90
9329;DHT22;4703;48.748;19.142;2022-12-18T06:26:17;-5.40;99.90
9329;DHT22;4703;48.748;19.142;2022-12-18T06:38:44;-5.60;99.90
9329;DHT22;4703;48.748;19.142;2022-12-18T06:41:13;-5.50;99.90
9329;DHT22;4703;48.748;19.142;2022-12-18T06:53:33;-4.90;99.90
9329;DHT22;4703;48.748;19.142;2022-12-18T06:56:06;-5.40;99.90
9329;DHT22;4703;48.748;19.142;2022-12-18T07:01:05;-5.60;99.90
9329;DHT22;4703;48.748;19.142;2022-12-18T07:03:34;-5.70;99.90
9329;DHT22;4703;48.748;19.142;2022-12-18T07:20:47;-5.30;99.90
9329;DHT22;4703;48.748;19.142;2022-12-18T07:23:14;-5.60;99.90
9329;DHT22;4703;48.748;19.142;2022-12-18T07:52:52;-5.00;99.90
9329;DHT22;4703;48.748;19.142;2022-12-18T07:55:21;-5.00;99.90
9329;DHT22;4703;48.748;19.142;2022-12-18T08:02:48;-4.70;99.90
9329;DHT22;4703;48.748;19.142;2022-12-18T08:15:05;-4.20;99.90
9329;DHT22;4703;48.748;19.142;2022-12-18T08:20:00;-4.10;99.90
9329;DHT22;4703;48.748;19.142;2022-12-18T08:32:25;-3.80;99.90
9329;DHT22;4703;48.748;19.142;2022-12-18T08:42:15;-2.90;99.90
9329;DHT22;4703;48.748;19.142;2022-12-18T08:47:28;-2.80;99.90
9329;DHT22;4703;48.748;19.142;2022-12-18T08:49:55;-2.80;99.90
9329;DHT22;4703;48.748;19.142;2022-12-18T08:54:49;-2.30;99.90
9329;DHT22;4703;48.748;19.142;2022-12-18T08:57:16;-2.20;99.90
9329;DHT22;4703;48.748;19.142;2022-12-18T08:59:43;-1.80;99.90
9329;DHT22;4703;48.748;19.142;2022-12-18T09:02:11;-1.70;99.90
9329;DHT22;4703;48.748;19.142;2022-12-18T09:04:38;-1.50;99.90
9329;DHT22;4703;48.748;19.142;2022-12-18T09:07:06;-1.10;99.90
9329;DHT22;4703;48.748;19.142;2022-12-18T09:09:33;-1.00;99.90
9329;DHT22;4703;48.748;19.142;2022-12-18T09:12:00;-1.00;99.90
9329;DHT22;4703;48.748;19.142;2022-12-18T09:14:27;-0.80;99.90
9329;DHT22;4703;48.748;19.142;2022-12-18T09:16:54;-0.50;99.90
9329;DHT22;4703;48.748;19.142;2022-12-18T09:19:21;-0.30;99.90
9329;DHT22;4703;48.748;19.142;2022-12-18T09:21:48;-0.10;99.90
9329;DHT22;4703;48.748;19.142;2022-12-18T09:24:15;0.00;99.90
9329;DHT22;4703;48.748;19.142;2022-12-18T09:26:43;0.00;99.70
9329;DHT22;4703;48.748;19.142;2022-12-18T09:29:13;0.70;98.40
9329;DHT22;4703;48.748;19.142;2022-12-18T09:31:44;1.60;98.90
9329;DHT22;4703;48.748;19.142;2022-12-18T09:34:11;0.60;98.20
9329;DHT22;4703;48.748;19.142;2022-12-18T09:36:38;3.40;99.70
9329;DHT22;4703;48.748;19.142;2022-12-18T09:39:05;0.70;98.00
9329;DHT22;4703;48.748;19.142;2022-12-18T09:41:51;0.80;97.50
9329;DHT22;4703;48.748;19.142;2022-12-18T09:44:36;0.90;97.50
9329;DHT22;4703;48.748;19.142;2022-12-18T09:47:24;1.20;97.60
9329;DHT22;4703;48.748;19.142;2022-12-18T09:49:59;1.30;97.10
9329;DHT22;4703;48.748;19.142;2022-12-18T09:52:40;1.40;96.70
9329;DHT22;4703;48.748;19.142;2022-12-18T09:55:31;1.40;96.50
9329;DHT22;4703;48.748;19.142;2022-12-18T09:58:17;1.50;96.60
9329;DHT22;4703;48.748;19.142;2022-12-18T10:00:47;1.50;96.40
9329;DHT22;4703;48.748;19.142;2022-12-18T10:03:15;1.50;96.30
9329;DHT22;4703;48.748;19.142;2022-12-18T10:06:02;1.60;95.80
9329;DHT22;4703;48.748;19.142;2022-12-18T10:08:51;1.60;95.40
9329;DHT22;4703;48.748;19.142;2022-12-18T10:14:34;1.70;95.20
9329;DHT22;4703;48.748;19.142;2022-12-18T10:20:45;1.70;95.30
9329;DHT22;4703;48.748;19.142;2022-12-18T10:23:33;1.70;95.60
9329;DHT22;4703;48.748;19.142;2022-12-18T10:26:13;1.70;95.50
9329;DHT22;4703;48.748;19.142;2022-12-18T10:28:41;1.70;95.30
9329;DHT22;4703;48.748;19.142;2022-12-18T10:31:23;1.70;94.90
9329;DHT22;4703;48.748;19.142;2022-12-18T10:33:54;1.50;94.60
9329;DHT22;4703;48.748;19.142;2022-12-18T10:36:23;1.60;95.00
9329;DHT22;4703;48.748;19.142;2022-12-18T10:38:51;0.90;94.60
9329;DHT22;4703;48.748;19.142;2022-12-18T10:44:15;1.80;95.20
9329;DHT22;4703;48.748;19.142;2022-12-18T10:46:54;2.20;95.20
9329;DHT22;4703;48.748;19.142;2022-12-18T10:49:50;1.70;94.50
9329;DHT22;4703;48.748;19.142;2022-12-18T10:52:22;1.90;95.00
9329;DHT22;4703;48.748;19.142;2022-12-18T10:54:58;2.00;95.60
9329;DHT22;4703;48.748;19.142;2022-12-18T10:57:31;2.10;95.50
9329;DHT22;4703;48.748;19.142;2022-12-18T11:02:48;2.30;95.00
9329;DHT22;4703;48.748;19.142;2022-12-18T11:07:55;2.70;94.90
9329;DHT22;4703;48.748;19.142;2022-12-18T11:10:38;2.80;94.60
9329;DHT22;4703;48.748;19.142;2022-12-18T11:13:21;3.70;94.40
9329;DHT22;4703;48.748;19.142;2022-12-18T11:15:50;4.80;94.70
9329;DHT22;4703;48.748;19.142;2022-12-18T11:18:30;3.10;94.20
9329;DHT22;4703;48.748;19.142;2022-12-18T11:23:36;3.40;94.00
9329;DHT22;4703;48.748;19.142;2022-12-18T11:26:05;3.50;93.80
9329;DHT22;4703;48.748;19.142;2022-12-18T11:28:46;3.70;93.90
9329;DHT22;4703;48.748;19.142;2022-12-18T11:31:19;4.00;93.60
9329;DHT22;4703;48.748;19.142;2022-12-18T11:33:51;4.30;93.00
9329;DHT22;4703;48.748;19.142;2022-12-18T11:36:59;4.60;92.60
9329;DHT22;4703;48.748;19.142;2022-12-18T11:39:44;5.00;92.10
9329;DHT22;4703;48.748;19.142;2022-12-18T11:47:44;5.50;90.30
9329;DHT22;4703;48.748;19.142;2022-12-18T11:50:19;5.70;90.10
9329;DHT22;4703;48.748;19.142;2022-12-18T11:52:51;5.90;89.10
9329;DHT22;4703;48.748;19.142;2022-12-18T11:58:15;6.00;89.10
9329;DHT22;4703;48.748;19.142;2022-12-18T12:06:58;5.70;86.10
9329;DHT22;4703;48.748;19.142;2022-12-18T12:10:01;5.40;86.30
9329;DHT22;4703;48.748;19.142;2022-12-18T12:12:51;4.90;86.50
9329;DHT22;4703;48.748;19.142;2022-12-18T12:21:22;3.50;90.50
9329;DHT22;4703;48.748;19.142;2022-12-18T12:28:00;3.00;91.50
9329;DHT22;4703;48.748;19.142;2022-12-18T12:34:12;2.70;91.90
9329;DHT22;4703;48.748;19.142;2022-12-18T12:40:17;2.60;92.10
9329;DHT22;4703;48.748;19.142;2022-12-18T12:43:23;2.30;92.00
9329;DHT22;4703;48.748;19.142;2022-12-18T12:46:06;2.30;92.30
9329;DHT22;4703;48.748;19.142;2022-12-18T12:48:45;2.40;92.80
9329;DHT22;4703;48.748;19.142;2022-12-18T12:51:23;2.90;93.30
9329;DHT22;4703;48.748;19.142;2022-12-18T12:53:55;2.80;93.60
9329;DHT22;4703;48.748;19.142;2022-12-18T12:56:27;3.10;92.80
9329;DHT22;4703;48.748;19.142;2022-12-18T12:59:57;3.40;92.40
9329;DHT22;4703;48.748;19.142;2022-12-18T13:02:45;3.80;92.00
9329;DHT22;4703;48.748;19.142;2022-12-18T13:05:53;4.00;91.80
9329;DHT22;4703;48.748;19.142;2022-12-18T13:08:27;4.20;92.30
9329;DHT22;4703;48.748;19.142;2022-12-18T13:10:59;4.30;91.70
9329;DHT22;4703;48.748;19.142;2022-12-18T13:13:54;4.60;91.20
9329;DHT22;4703;48.748;19.142;2022-12-18T13:16:24;4.70;90.70
9329;DHT22;4703;48.748;19.142;2022-12-18T13:18:55;4.90;90.60
9329;DHT22;4703;48.748;19.142;2022-12-18T13:21:29;5.00;90.50
9329;DHT22;4703;48.748;19.142;2022-12-18T13:24:15;5.20;89.90
9329;DHT22;4703;48.748;19.142;2022-12-18T13:26:48;5.30;88.80
9329;DHT22;4703;48.748;19.142;2022-12-18T13:29:40;5.60;86.60
9329;DHT22;4703;48.748;19.142;2022-12-18T13:32:23;5.60;87.40
9329;DHT22;4703;48.748;19.142;2022-12-18T13:37:52;5.60;85.50
9329;DHT22;4703;48.748;19.142;2022-12-18T13:49:24;5.70;84.90
9329;DHT22;4703;48.748;19.142;2022-12-18T13:51:55;5.70;84.00
9329;DHT22;4703;48.748;19.142;2022-12-18T13:54:36;5.50;84.40
9329;DHT22;4703;48.748;19.142;2022-12-18T14:00:25;4.60;85.00
9329;DHT22;4703;48.748;19.142;2022-12-18T14:02:59;4.20;86.30
9329;DHT22;4703;48.748;19.142;2022-12-18T14:08:10;3.20;90.00
9329;DHT22;4703;48.748;19.142;2022-12-18T14:10:41;2.80;91.00
9329;DHT22;4703;48.748;19.142;2022-12-18T14:13:24;2.50;91.90
9329;DHT22;4703;48.748;19.142;2022-12-18T14:15:55;2.10;92.70
9329;DHT22;4703;48.748;19.142;2022-12-18T14:19:05;1.80;93.50
9329;DHT22;4703;48.748;19.142;2022-12-18T14:21:39;1.50;94.20
9329;DHT22;4703;48.748;19.142;2022-12-18T14:26:49;1.20;95.40
9329;DHT22;4703;48.748;19.142;2022-12-18T14:32:06;0.80;95.70
9329;DHT22;4703;48.748;19.142;2022-12-18T14:34:52;0.50;96.10
9329;DHT22;4703;48.748;19.142;2022-12-18T14:37:25;0.50;96.40
9329;DHT22;4703;48.748;19.142;2022-12-18T14:40:01;0.40;96.80
9329;DHT22;4703;48.748;19.142;2022-12-18T14:42:37;0.10;97.10
9329;DHT22;4703;48.748;19.142;2022-12-18T14:45:33;0.00;97.30
9329;DHT22;4703;48.748;19.142;2022-12-18T14:50:40;-0.10;97.70
9329;DHT22;4703;48.748;19.142;2022-12-18T14:53:20;-0.20;97.80
9329;DHT22;4703;48.748;19.142;2022-12-18T14:55:50;-0.30;97.70
9329;DHT22;4703;48.748;19.142;2022-12-18T14:58:18;-0.20;97.90
9329;DHT22;4703;48.748;19.142;2022-12-18T15:00:45;-0.30;98.00
9329;DHT22;4703;48.748;19.142;2022-12-18T15:03:18;-0.30;98.10
9329;DHT22;4703;48.748;19.142;2022-12-18T15:05:47;-0.30;98.10
9329;DHT22;4703;48.748;19.142;2022-12-18T15:08:30;-0.50;98.20
9329;DHT22;4703;48.748;19.142;2022-12-18T15:11:02;-0.50;98.30
9329;DHT22;4703;48.748;19.142;2022-12-18T15:13:34;-0.50;98.70
9329;DHT22;4703;48.748;19.142;2022-12-18T15:16:01;-0.70;98.70
9329;DHT22;4703;48.748;19.142;2022-12-18T15:18:34;-0.80;98.90
9329;DHT22;4703;48.748;19.142;2022-12-18T15:21:10;-0.70;99.00
9329;DHT22;4703;48.748;19.142;2022-12-18T15:26:12;-0.90;99.30
9329;DHT22;4703;48.748;19.142;2022-12-18T15:28:55;-1.00;99.60
9329;DHT22;4703;48.748;19.142;2022-12-18T15:31:34;-1.10;99.70
9329;DHT22;4703;48.748;19.142;2022-12-18T15:34:17;-1.10;99.80
9329;DHT22;4703;48.748;19.142;2022-12-18T15:39:14;-1.30;99.60
9329;DHT22;4703;48.748;19.142;2022-12-18T15:41:41;-1.20;99.90
9329;DHT22;4703;48.748;19.142;2022-12-18T15:44:28;-1.40;99.90
9329;DHT22;4703;48.748;19.142;2022-12-18T15:49:22;-1.30;99.90
9329;DHT22;4703;48.748;19.142;2022-12-18T15:51:56;-1.50;99.90
9329;DHT22;4703;48.748;19.142;2022-12-18T15:57:11;-1.60;99.90
9329;DHT22;4703;48.748;19.142;2022-12-18T15:59:55;-1.70;99.90
9329;DHT22;4703;48.748;19.142;2022-12-18T16:02:26;-1.70;99.90
9329;DHT22;4703;48.748;19.142;2022-12-18T16:07:22;-1.80;99.90
9329;DHT22;4703;48.748;19.142;2022-12-18T16:09:52;-1.80;99.90
9329;DHT22;4703;48.748;19.142;2022-12-18T16:12:23;-1.70;99.90
9329;DHT22;4703;48.748;19.142;2022-12-18T16:19:46;-1.80;99.90
9329;DHT22;4703;48.748;19.142;2022-12-18T16:22:20;-1.90;99.90
9329;DHT22;4703;48.748;19.142;2022-12-18T16:24:55;-1.90;99.90
9329;DHT22;4703;48.748;19.142;2022-12-18T16:27:23;-2.10;99.90
9329;DHT22;4703;48.748;19.142;2022-12-18T16:29:50;-2.20;99.90
9329;DHT22;4703;48.748;19.142;2022-12-18T16:32:20;-2.20;99.90
9329;DHT22;4703;48.748;19.142;2022-12-18T16:34:49;-2.20;99.90
9329;DHT22;4703;48.748;19.142;2022-12-18T16:37:16;-2.20;99.90
9329;DHT22;4703;48.748;19.142;2022-12-18T16:39:44;-2.30;99.90
9329;DHT22;4703;48.748;19.142;2022-12-18T16:42:14;-2.40;99.90
9329;DHT22;4703;48.748;19.142;2022-12-18T16:44:47;-2.50;99.90
9329;DHT22;4703;48.748;19.142;2022-12-18T16:47:15;-2.50;99.90
9329;DHT22;4703;48.748;19.142;2022-12-18T16:54:40;-2.50;99.90
9329;DHT22;4703;48.748;19.142;2022-12-18T16:57:10;-2.60;99.90
9329;DHT22;4703;48.748;19.142;2022-12-18T16:59:39;-2.60;99.90
9329;DHT22;4703;48.748;19.142;2022-12-18T17:02:15;-2.70;99.90
9329;DHT22;4703;48.748;19.142;2022-12-18T17:04:49;-2.70;99.90
9329;DHT22;4703;48.748;19.142;2022-12-18T17:07:18;-2.60;99.90
9329;DHT22;4703;48.748;19.142;2022-12-18T17:14:40;-2.70;99.90
9329;DHT22;4703;48.748;19.142;2022-12-18T17:17:07;-2.60;99.90
9329;DHT22;4703;48.748;19.142;2022-12-18T17:19:50;-2.70;99.90
9329;DHT22;4703;48.748;19.142;2022-12-18T17:22:19;-2.70;99.90
9329;DHT22;4703;48.748;19.142;2022-12-18T17:24:46;-2.80;99.90
9329;DHT22;4703;48.748;19.142;2022-12-18T17:27:13;-2.80;99.90
9329;DHT22;4703;48.748;19.142;2022-12-18T17:29:40;-2.90;99.90
9329;DHT22;4703;48.748;19.142;2022-12-18T17:32:15;-2.80;99.90
9329;DHT22;4703;48.748;19.142;2022-12-18T17:37:09;-2.90;99.90
9329;DHT22;4703;48.748;19.142;2022-12-18T17:42:04;-3.00;99.90
9329;DHT22;4703;48.748;19.142;2022-12-18T17:44:33;-2.90;99.90
9329;DHT22;4703;48.748;19.142;2022-12-18T17:51:55;-3.00;99.90
9329;DHT22;4703;48.748;19.142;2022-12-18T17:54:22;-3.00;99.90
9329;DHT22;4703;48.748;19.142;2022-12-18T17:56:50;-3.00;99.90
9329;DHT22;4703;48.748;19.142;2022-12-18T18:04:14;-3.00;99.90
9329;DHT22;4703;48.748;19.142;2022-12-18T18:06:41;-3.00;99.90
9329;DHT22;4703;48.748;19.142;2022-12-18T18:11:46;-2.90;99.90
9329;DHT22;4703;48.748;19.142;2022-12-18T18:17:00;-3.10;99.90
9329;DHT22;4703;48.748;19.142;2022-12-18T18:19:31;-3.10;99.90
9329;DHT22;4703;48.748;19.142;2022-12-18T18:21:59;-3.00;99.90
9329;DHT22;4703;48.748;19.142;2022-12-18T18:24:28;-3.20;99.90
9329;DHT22;4703;48.748;19.142;2022-12-18T18:26:55;-3.30;99.90
9329;DHT22;4703;48.748;19.142;2022-12-18T18:29:26;-3.30;99.90
9329;DHT22;4703;48.748;19.142;2022-12-18T18:34:26;-3.40;99.90
9329;DHT22;4703;48.748;19.142;2022-12-18T18:36:57;-3.40;99.90
9329;DHT22;4703;48.748;19.142;2022-12-18T18:41:52;-3.60;99.90
9329;DHT22;4703;48.748;19.142;2022-12-18T18:44:20;-4.10;99.90
9329;DHT22;4703;48.748;19.142;2022-12-18T18:46:55;-3.60;99.90
9329;DHT22;4703;48.748;19.142;2022-12-18T18:49:27;-3.50;99.90
9329;DHT22;4703;48.748;19.142;2022-12-18T18:51:55;-3.60;99.90
9329;DHT22;4703;48.748;19.142;2022-12-18T18:54:23;-3.70;99.90
9329;DHT22;4703;48.748;19.142;2022-12-18T19:02:07;-3.90;99.90
9329;DHT22;4703;48.748;19.142;2022-12-18T19:07:12;-4.00;99.90
9329;DHT22;4703;48.748;19.142;2022-12-18T19:09:55;-4.20;99.90
9329;DHT22;4703;48.748;19.142;2022-12-18T19:12:25;-4.10;99.90
9329;DHT22;4703;48.748;19.142;2022-12-18T19:15:10;-4.10;99.90
9329;DHT22;4703;48.748;19.142;2022-12-18T19:17:39;-4.00;99.90
9329;DHT22;4703;48.748;19.142;2022-12-18T19:25:05;-4.20;99.90
9329;DHT22;4703;48.748;19.142;2022-12-18T19:30:04;-4.20;99.90
9329;DHT22;4703;48.748;19.142;2022-12-18T19:35:00;-4.20;99.90
9329;DHT22;4703;48.748;19.142;2022-12-18T19:44:58;-4.30;99.90
9329;DHT22;4703;48.748;19.142;2022-12-18T19:54:48;-2.00;99.90
9329;DHT22;4703;48.748;19.142;2022-12-18T20:19:32;-4.30;99.90
9329;DHT22;4703;48.748;19.142;2022-12-18T20:34:18;-4.40;99.90
9329;DHT22;4703;48.748;19.142;2022-12-18T20:36:45;-4.40;99.90
9329;DHT22;4703;48.748;19.142;2022-12-18T20:41:43;-4.40;99.90
9329;DHT22;4703;48.748;19.142;2022-12-18T20:44:15;-4.50;99.90
9329;DHT22;4703;48.748;19.142;2022-12-18T20:46:58;-4.50;99.90
9329;DHT22;4703;48.748;19.142;2022-12-18T20:52:03;-4.50;99.90
9329;DHT22;4703;48.748;19.142;2022-12-18T21:01:53;-4.60;99.90
9329;DHT22;4703;48.748;19.142;2022-12-18T21:09:26;-4.40;99.90
9329;DHT22;4703;48.748;19.142;2022-12-18T21:12:00;-4.60;99.90
9329;DHT22;4703;48.748;19.142;2022-12-18T21:19:42;-4.60;99.90
9329;DHT22;4703;48.748;19.142;2022-12-18T21:24:37;-4.80;99.90
9329;DHT22;4703;48.748;19.142;2022-12-18T21:29:32;-4.90;99.90
9329;DHT22;4703;48.748;19.142;2022-12-18T21:32:01;-4.90;99.90
9329;DHT22;4703;48.748;19.142;2022-12-18T21:34:30;-4.90;99.90
9329;DHT22;4703;48.748;19.142;2022-12-18T21:36:59;-4.90;99.90
9329;DHT22;4703;48.748;19.142;2022-12-18T21:39:28;-5.00;99.90
9329;DHT22;4703;48.748;19.142;2022-12-18T21:41:56;-5.00;99.90
9329;DHT22;4703;48.748;19.142;2022-12-18T21:44:43;-5.10;99.90
9329;DHT22;4703;48.748;19.142;2022-12-18T21:47:10;-4.80;99.90
9329;DHT22;4703;48.748;19.142;2022-12-18T21:49:52;-5.00;99.90
9329;DHT22;4703;48.748;19.142;2022-12-18T21:52:22;-5.60;99.90
9329;DHT22;4703;48.748;19.142;2022-12-18T21:54:59;-5.10;99.90
9329;DHT22;4703;48.748;19.142;2022-12-18T21:57:37;-5.00;99.90
9329;DHT22;4703;48.748;19.142;2022-12-18T22:00:06;-5.10;99.90
9329;DHT22;4703;48.748;19.142;2022-12-18T22:09:56;-4.90;99.90
9329;DHT22;4703;48.748;19.142;2022-12-18T22:15:10;-5.00;99.90
9329;DHT22;4703;48.748;19.142;2022-12-18T22:17:44;-5.00;99.90
9329;DHT22;4703;48.748;19.142;2022-12-18T22:30:04;-5.30;99.90
9329;DHT22;4703;48.748;19.142;2022-12-18T22:32:33;-5.10;99.90
9329;DHT22;4703;48.748;19.142;2022-12-18T22:35:02;-5.20;99.90
9329;DHT22;4703;48.748;19.142;2022-12-18T22:40:10;-5.20;99.90
9329;DHT22;4703;48.748;19.142;2022-12-18T22:47:48;-4.90;99.90
9329;DHT22;4703;48.748;19.142;2022-12-18T22:50:15;-5.00;99.90
9329;DHT22;4703;48.748;19.142;2022-12-18T23:00:12;-4.90;99.90
9329;DHT22;4703;48.748;19.142;2022-12-18T23:19:53;-4.80;99.90
9329;DHT22;4703;48.748;19.142;2022-12-18T23:27:15;-4.70;99.90
9329;DHT22;4703;48.748;19.142;2022-12-18T23:32:11;-4.50;99.90
9329;DHT22;4703;48.748;19.142;2022-12-18T23:34:38;-4.70;99.90
9329;DHT22;4703;48.748;19.142;2022-12-18T23:49:22;-4.30;99.90
9329;DHT22;4703;48.748;19.142;2022-12-18T23:51:49;-4.40;99.90
9329;DHT22;4703;48.748;19.142;2022-12-18T23:56:59;-4.50;99.90
